Time;durP1;ratioP1;P1;durP2;ratioP2;P2;SDS_P1;SDS_P2;PMS_P1;PMS_P2;Temp;Humidity;BMP_temperature;BMP_pressure;BME280_temperature;BME280_humidity;BME280_pressure;Samples;Min_cycle;Max_cycle;Signal;HPM_P1;HPM_P2
2021/09/08 00:00:30;;;;;;;13.68;9.02;;;;;;;12.56;77.27;97728.81;4925500;29;20040;-74
2021/09/08 00:02:56;;;;;;;12.07;8.45;;;;;;;12.72;76.56;97728.97;4934221;28;20505;-74
2021/09/08 00:05:22;;;;;;;15.57;9.30;;;;;;;12.80;76.45;97723.06;4945481;28;20039;-74
2021/09/08 00:07:47;;;;;;;12.27;8.52;;;;;;;12.90;76.21;97725.03;4928010;29;20078;-74
2021/09/08 00:10:13;;;;;;;12.25;8.95;;;;;;;12.84;76.07;97726.91;4932103;28;20110;-74
2021/09/08 00:12:39;;;;;;;13.52;9.00;;;;;;;12.69;76.68;97715.91;4942822;28;20479;-74
2021/09/08 00:15:08;;;;;;;13.57;8.55;;;;;;;12.60;76.84;97713.66;4934697;28;20548;-74
2021/09/08 00:17:33;;;;;;;12.30;8.88;;;;;;;12.53;77.06;97710.31;4960917;28;20035;-74
2021/09/08 00:19:59;;;;;;;12.50;8.80;;;;;;;12.39;77.42;97706.38;4938545;28;20594;-74
2021/09/08 00:22:24;;;;;;;12.30;8.40;;;;;;;12.56;76.87;97704.38;4940901;28;20058;-74
2021/09/08 00:24:50;;;;;;;13.18;9.35;;;;;;;12.60;76.72;97702.78;4941294;28;20030;-74
2021/09/08 00:27:16;;;;;;;13.23;9.15;;;;;;;12.65;76.76;97704.75;4937033;28;20037;-74
2021/09/08 00:29:41;;;;;;;14.00;9.20;;;;;;;12.66;76.49;97697.38;4924545;29;20039;-74
2021/09/08 00:32:07;;;;;;;10.95;8.20;;;;;;;12.67;75.49;97694.41;4931291;28;20075;-74
2021/09/08 00:34:32;;;;;;;17.33;8.77;;;;;;;12.73;75.94;97698.00;4916283;29;20026;-74
2021/09/08 00:36:57;;;;;;;12.20;9.35;;;;;;;12.57;76.48;97695.13;4932712;28;20056;-74
2021/09/08 00:39:23;;;;;;;14.25;9.35;;;;;;;12.40;77.32;97700.69;4919372;28;20447;-74
2021/09/08 00:41:48;;;;;;;12.48;9.40;;;;;;;12.43;77.16;97699.34;4931489;28;20167;-74
2021/09/08 00:44:14;;;;;;;16.23;9.40;;;;;;;12.28;77.64;97702.72;4927233;29;20042;-74
2021/09/08 00:46:41;;;;;;;13.88;8.90;;;;;;;12.36;77.31;97689.50;4921861;29;20170;-74
2021/09/08 00:49:06;;;;;;;12.98;9.00;;;;;;;12.28;77.94;97697.28;4938679;28;20458;-74
2021/09/08 00:51:33;;;;;;;17.63;9.77;;;;;;;12.26;77.74;97697.56;4931582;28;20122;-74
2021/09/08 00:53:59;;;;;;;11.63;8.27;;;;;;;12.41;76.83;97690.63;4939267;28;20059;-74
2021/09/08 00:56:27;;;;;;;16.15;9.35;;;;;;;12.21;77.62;97694.78;4943955;28;20023;-74
2021/09/08 00:58:52;;;;;;;13.38;8.88;;;;;;;12.09;77.90;97684.06;4948787;28;20775;-74
2021/09/08 01:01:19;;;;;;;13.48;9.73;;;;;;;11.99;78.53;97698.31;4936084;28;20062;-74
2021/09/08 01:03:44;;;;;;;14.13;9.55;;;;;;;12.01;79.04;97695.34;4956482;28;20031;-74
2021/09/08 01:06:10;;;;;;;14.50;9.57;;;;;;;12.20;78.00;97691.25;4936682;28;20097;-74
2021/09/08 01:08:35;;;;;;;13.70;9.07;;;;;;;12.13;78.26;97689.81;4938964;28;20454;-74
2021/09/08 01:11:01;;;;;;;14.68;10.57;;;;;;;11.93;78.87;97686.56;4933918;28;20030;-74
2021/09/08 01:13:26;;;;;;;15.40;10.40;;;;;;;11.98;79.15;97685.81;4930510;28;20031;-74
2021/09/08 01:16:02;;;;;;;13.75;9.85;;;;;;;11.99;78.89;97689.34;4930864;28;20063;-74
2021/09/08 01:18:28;;;;;;;16.23;10.35;;;;;;;12.01;78.78;97682.59;4928072;28;20023;-74
2021/09/08 01:20:53;;;;;;;13.68;9.88;;;;;;;11.98;78.56;97683.09;4927415;28;20028;-74
2021/09/08 01:23:19;;;;;;;13.75;9.70;;;;;;;11.93;79.26;97680.31;4949815;28;20094;-74
2021/09/08 01:25:44;;;;;;;15.52;9.88;;;;;;;11.92;79.19;97681.38;4961254;28;20032;-74
2021/09/08 01:28:10;;;;;;;22.02;9.70;;;;;;;11.63;79.98;97678.84;4945288;28;20483;-74
2021/09/08 01:30:35;;;;;;;12.77;9.57;;;;;;;11.83;79.60;97679.13;4957329;28;20850;-74
2021/09/08 01:33:01;;;;;;;15.32;9.38;;;;;;;12.08;78.36;97682.41;4925473;28;20729;-74
2021/09/08 01:35:27;;;;;;;15.05;9.82;;;;;;;11.83;79.22;97679.13;4942428;28;20035;-74
2021/09/08 01:37:53;;;;;;;16.58;10.10;;;;;;;12.06;78.68;97669.09;4926026;29;20036;-74
2021/09/08 01:40:19;;;;;;;14.57;9.77;;;;;;;11.90;78.79;97672.69;4933483;28;20044;-74
2021/09/08 01:42:46;;;;;;;13.60;9.43;;;;;;;11.96;78.63;97672.50;4944807;28;20019;-74
2021/09/08 01:45:15;;;;;;;13.93;10.32;;;;;;;12.10;78.16;97669.41;4925867;28;20034;-74
2021/09/08 01:47:42;;;;;;;13.30;9.45;;;;;;;12.15;77.78;97666.75;4924259;29;20035;-74
2021/09/08 01:50:08;;;;;;;13.23;9.23;;;;;;;11.96;78.08;97661.66;4943098;28;20034;-74
2021/09/08 01:52:35;;;;;;;16.25;9.27;;;;;;;11.82;78.18;97668.50;4935762;28;20032;-74
2021/09/08 01:55:00;;;;;;;12.70;9.48;;;;;;;11.54;79.60;97668.44;4946273;28;20495;-74
2021/09/08 01:57:25;;;;;;;14.05;10.35;;;;;;;11.44;80.46;97668.31;4934623;28;20027;-74
2021/09/08 01:59:51;;;;;;;18.48;10.15;;;;;;;11.44;80.02;97665.59;4956193;28;20111;-74
2021/09/08 02:02:16;;;;;;;14.73;11.25;;;;;;;11.54;80.07;97667.63;4931375;28;20059;-74
2021/09/08 02:04:42;;;;;;;14.00;9.90;;;;;;;11.61;79.54;97662.84;4937316;28;20483;-74
2021/09/08 02:07:07;;;;;;;14.70;9.50;;;;;;;11.40;80.10;97665.28;4927538;28;20434;-74
2021/09/08 02:09:32;;;;;;;14.38;10.13;;;;;;;11.41;80.46;97671.53;4933215;28;20023;-74
2021/09/08 02:11:58;;;;;;;14.85;10.15;;;;;;;11.47;80.13;97661.56;4948280;28;20046;-74
2021/09/08 02:14:23;;;;;;;13.57;9.40;;;;;;;11.43;79.73;97666.69;4928896;29;20038;-74
2021/09/08 02:16:49;;;;;;;13.85;10.02;;;;;;;11.34;80.33;97660.03;4933993;28;20058;-74
2021/09/08 02:19:14;;;;;;;17.00;9.95;;;;;;;11.35;80.08;97657.06;4945201;28;20027;-75
2021/09/08 02:21:40;;;;;;;14.88;9.73;;;;;;;11.37;80.13;97656.81;4942234;28;20026;-74
2021/09/08 02:24:05;;;;;;;13.05;9.45;;;;;;;11.13;80.97;97652.44;4914784;29;20024;-74
2021/09/08 02:26:31;;;;;;;17.00;10.68;;;;;;;11.25;80.66;97654.22;4918442;28;20031;-74
2021/09/08 02:28:57;;;;;;;18.55;10.27;;;;;;;11.42;79.69;97654.19;4936134;28;20020;-74
2021/09/08 02:31:23;;;;;;;15.45;10.45;;;;;;;11.30;80.35;97646.16;4958105;28;20035;-74
2021/09/08 02:33:48;;;;;;;16.65;10.40;;;;;;;11.05;81.12;97656.38;4928459;28;20032;-74
2021/09/08 02:36:14;;;;;;;18.48;10.65;;;;;;;11.13;80.89;97652.44;4932851;28;20043;-74
2021/09/08 02:38:39;;;;;;;16.58;11.50;;;;;;;11.01;81.38;97646.28;4945104;28;20035;-74
2021/09/08 02:41:08;;;;;;;18.92;11.00;;;;;;;10.90;81.63;97650.72;4941613;28;20380;-74
2021/09/08 02:43:34;;;;;;;13.38;9.95;;;;;;;10.90;81.41;97648.00;4944064;28;20046;-74
2021/09/08 02:46:02;;;;;;;16.20;10.02;;;;;;;11.08;80.99;97652.34;4924337;29;20151;-74
2021/09/08 02:48:29;;;;;;;14.30;10.07;;;;;;;10.92;81.41;97646.69;4926883;28;20032;-74
2021/09/08 02:50:55;;;;;;;14.98;10.13;;;;;;;10.83;81.94;97645.47;4926491;28;20039;-74
2021/09/08 02:53:20;;;;;;;17.15;10.85;;;;;;;10.73;82.35;97642.63;4925247;28;20030;-74
2021/09/08 02:55:46;;;;;;;15.07;9.98;;;;;;;10.66;82.38;97638.16;4935781;28;20087;-74
2021/09/08 02:58:11;;;;;;;15.13;10.23;;;;;;;10.80;81.80;97637.88;4939587;28;20023;-74
2021/09/08 03:00:37;;;;;;;14.05;9.95;;;;;;;10.66;82.39;97631.94;4925366;29;20087;-74
2021/09/08 03:03:02;;;;;;;14.57;10.07;;;;;;;10.64;82.40;97634.06;4936352;28;20042;-74
2021/09/08 03:05:27;;;;;;;14.52;9.10;;;;;;;10.69;82.23;97631.44;4939378;28;20034;-74
2021/09/08 03:07:53;;;;;;;15.48;9.52;;;;;;;10.64;82.52;97624.06;4928920;28;20407;-74
2021/09/08 03:10:18;;;;;;;16.25;11.13;;;;;;;10.69;82.44;97622.50;4938061;28;20067;-74
2021/09/08 03:12:44;;;;;;;17.63;11.30;;;;;;;11.01;81.14;97621.91;4945443;28;20031;-74
2021/09/08 03:15:09;;;;;;;13.65;10.32;;;;;;;10.98;80.88;97623.22;4945152;28;20031;-74
2021/09/08 03:17:35;;;;;;;15.50;9.45;;;;;;;10.70;81.87;97619.56;4929516;28;20137;-74
2021/09/08 03:20:00;;;;;;;16.23;10.02;;;;;;;10.59;82.37;97617.75;4938691;28;20058;-74
2021/09/08 03:22:26;;;;;;;18.58;10.23;;;;;;;10.51;82.48;97622.50;4941732;28;20035;-74
2021/09/08 03:24:51;;;;;;;15.80;11.18;;;;;;;10.52;82.43;97618.75;4911007;28;20023;-74
2021/09/08 03:27:16;;;;;;;16.50;11.00;;;;;;;10.69;81.69;97615.19;4929861;28;20054;-74
2021/09/08 03:29:42;;;;;;;15.75;10.50;;;;;;;10.88;81.09;97607.63;4944800;28;20031;-74
2021/09/08 03:32:07;;;;;;;14.52;9.57;;;;;;;10.58;81.85;97608.00;4926333;29;20051;-74
2021/09/08 03:34:32;;;;;;;15.45;10.50;;;;;;;10.95;80.69;97621.03;4934790;28;20027;-74
2021/09/08 03:36:58;;;;;;;15.57;11.07;;;;;;;11.14;79.70;97609.91;4946520;28;20403;-74
2021/09/08 03:39:23;;;;;;;18.40;10.70;;;;;;;11.09;79.65;97609.84;4943675;28;20101;-74
2021/09/08 03:41:48;;;;;;;18.13;9.95;;;;;;;11.00;79.92;97606.72;4931947;28;20027;-74
2021/09/08 03:44:14;;;;;;;14.88;10.25;;;;;;;10.97;79.47;97610.75;4936545;28;20031;-74
2021/09/08 03:46:39;;;;;;;14.88;9.68;;;;;;;10.87;79.65;97613.31;4929839;28;20055;-74
2021/09/08 03:49:05;;;;;;;15.80;10.02;;;;;;;10.57;80.83;97609.88;4931709;28;20058;-74
2021/09/08 03:51:30;;;;;;;16.35;10.07;;;;;;;10.42;81.35;97610.41;4911974;29;20052;-74
2021/09/08 03:53:58;;;;;;;19.08;10.93;;;;;;;10.44;81.44;97611.03;4930939;28;20346;-74
2021/09/08 03:56:24;;;;;;;15.55;10.65;;;;;;;10.70;80.15;97611.44;4926583;28;20388;-74
2021/09/08 03:58:49;;;;;;;15.82;11.07;;;;;;;10.74;80.02;97609.03;4942570;28;20090;-74
2021/09/08 04:01:15;;;;;;;15.88;10.50;;;;;;;10.72;79.89;97598.44;4910504;29;20103;-74
2021/09/08 04:03:40;;;;;;;15.07;10.45;;;;;;;10.57;80.52;97600.94;4940528;28;20047;-74
2021/09/08 04:06:05;;;;;;;15.52;9.80;;;;;;;10.66;80.27;97599.47;4937627;28;20035;-74
2021/09/08 04:08:31;;;;;;;16.10;10.30;;;;;;;10.66;80.43;97594.03;4925999;28;20031;-74
2021/09/08 04:10:56;;;;;;;16.08;10.48;;;;;;;10.57;80.88;97598.22;4938265;28;20067;-74
2021/09/08 04:13:22;;;;;;;15.73;10.30;;;;;;;10.66;80.26;97594.84;4957280;28;20106;-74
2021/09/08 04:15:47;;;;;;;14.30;9.75;;;;;;;10.85;79.20;97591.88;4934515;28;20027;-74
2021/09/08 04:18:12;;;;;;;15.45;9.45;;;;;;;10.79;79.74;97591.00;4944456;28;20044;-74
2021/09/08 04:20:38;;;;;;;14.43;9.98;;;;;;;10.66;80.24;97585.91;4928648;28;20055;-74
2021/09/08 04:23:03;;;;;;;15.40;10.77;;;;;;;10.69;79.70;97588.09;4916457;29;20023;-74
2021/09/08 04:25:28;;;;;;;14.10;10.15;;;;;;;10.63;80.00;97589.09;4923771;28;20035;-74
2021/09/08 04:27:54;;;;;;;14.32;10.35;;;;;;;10.75;79.65;97589.00;4939484;28;20034;-74
2021/09/08 04:30:19;;;;;;;14.90;10.02;;;;;;;10.72;79.43;97582.22;4947017;28;20030;-74
2021/09/08 04:32:45;;;;;;;14.98;10.95;;;;;;;10.68;79.90;97580.25;4918018;29;20066;-74
2021/09/08 04:35:10;;;;;;;15.30;10.45;;;;;;;10.44;80.22;97581.25;4925120;29;20031;-74
2021/09/08 04:37:36;;;;;;;17.45;11.20;;;;;;;10.04;82.48;97584.84;4943929;28;20138;-74
2021/09/08 04:40:03;;;;;;;21.17;11.85;;;;;;;10.13;82.25;97586.09;4932896;28;20046;-74
2021/09/08 04:42:28;;;;;;;17.58;11.10;;;;;;;10.07;82.68;97581.66;4957974;28;20034;-74
2021/09/08 04:44:54;;;;;;;16.10;11.20;;;;;;;10.13;82.52;97578.81;4950361;28;20031;-74
2021/09/08 04:47:19;;;;;;;19.30;11.77;;;;;;;9.93;83.66;97581.97;4930757;28;20042;-74
2021/09/08 04:49:45;;;;;;;17.83;12.82;;;;;;;10.06;83.16;97583.53;4945581;28;20038;-74
2021/09/08 04:52:10;;;;;;;15.45;9.88;;;;;;;9.95;83.66;97574.41;4949454;28;20035;-74
2021/09/08 04:54:36;;;;;;;18.77;12.27;;;;;;;10.19;82.74;97582.41;4949314;28;20142;-74
2021/09/08 04:57:01;;;;;;;20.40;11.40;;;;;;;10.13;82.81;97586.09;4935406;28;20035;-74
2021/09/08 04:59:27;;;;;;;17.05;12.48;;;;;;;10.16;82.55;97580.19;4939080;28;20110;-74
2021/09/08 05:01:52;;;;;;;17.05;12.40;;;;;;;10.18;82.43;97588.06;4921226;28;20058;-73
2021/09/08 05:04:18;;;;;;;18.08;12.18;;;;;;;10.43;81.75;97582.25;4911779;29;20098;-74
2021/09/08 05:06:43;;;;;;;18.92;12.38;;;;;;;10.24;82.06;97587.09;4931641;28;20022;-75
2021/09/08 05:09:09;;;;;;;19.55;12.63;;;;;;;10.16;82.59;97582.91;4923477;28;20027;-74
2021/09/08 05:11:34;;;;;;;19.75;13.32;;;;;;;10.16;82.70;97585.59;4927350;28;20028;-74
2021/09/08 05:14:00;;;;;;;23.58;14.25;;;;;;;10.11;83.13;97586.34;4939965;28;20033;-74
2021/09/08 05:16:25;;;;;;;20.23;13.02;;;;;;;10.32;81.90;97585.88;4929345;28;20035;-74
2021/09/08 05:18:50;;;;;;;20.75;13.38;;;;;;;10.58;81.09;97586.31;4929889;28;20631;-74
2021/09/08 05:21:16;;;;;;;20.83;13.38;;;;;;;10.51;81.16;97592.72;4936827;28;20037;-74
2021/09/08 05:23:41;;;;;;;19.35;13.30;;;;;;;10.48;80.99;97590.53;4949809;28;20055;-74
2021/09/08 05:26:07;;;;;;;21.40;12.32;;;;;;;10.63;80.41;97583.69;4937233;28;20031;-74
2021/09/08 05:28:32;;;;;;;18.52;12.20;;;;;;;10.57;80.62;97587.41;4928494;28;20035;-74
2021/09/08 05:30:57;;;;;;;19.65;11.88;;;;;;;10.53;80.58;97587.88;4937043;28;20032;-73
2021/09/08 05:33:23;;;;;;;19.38;12.35;;;;;;;10.43;81.31;97584.16;4931152;28;20036;-74
2021/09/08 05:35:48;;;;;;;18.98;12.85;;;;;;;10.36;81.65;97592.44;4930568;28;20028;-74
2021/09/08 05:38:14;;;;;;;17.67;12.80;;;;;;;10.54;81.03;97591.41;4948119;28;20035;-74
2021/09/08 05:40:39;;;;;;;18.73;12.65;;;;;;;10.47;81.16;97586.16;4936394;28;20075;-74
2021/09/08 05:43:04;;;;;;;19.30;13.02;;;;;;;10.42;81.88;97583.34;4944099;28;20066;-74
2021/09/08 05:45:30;;;;;;;19.58;12.52;;;;;;;10.52;81.30;97580.84;4933631;28;20058;-74
2021/09/08 05:47:55;;;;;;;21.17;12.15;;;;;;;10.54;81.63;97581.41;4929315;28;20020;-74
2021/09/08 05:50:20;;;;;;;22.00;13.75;;;;;;;10.66;81.41;97583.22;4939618;28;20498;-74
2021/09/08 05:52:46;;;;;;;17.48;12.52;;;;;;;10.60;81.38;97585.00;4962935;28;20894;-74
2021/09/08 05:55:11;;;;;;;20.25;13.73;;;;;;;10.69;81.74;97587.31;4936339;28;20847;-74
2021/09/08 05:57:36;;;;;;;18.73;13.75;;;;;;;10.84;81.58;97586.72;4929273;28;20171;-74
2021/09/08 06:00:04;;;;;;;17.73;12.90;;;;;;;10.89;81.09;97587.63;4932953;28;20032;-74
2021/09/08 06:02:29;;;;;;;20.95;13.70;;;;;;;10.88;81.54;97590.56;4927304;28;20040;-74
2021/09/08 06:04:54;;;;;;;21.50;14.27;;;;;;;10.89;82.01;97593.03;4934052;28;20105;-74
2021/09/08 06:07:20;;;;;;;19.70;13.10;;;;;;;11.01;82.30;97587.50;4934532;28;20231;-74
2021/09/08 06:09:45;;;;;;;22.15;13.30;;;;;;;11.19;81.49;97586.41;4945458;28;20478;-74
2021/09/08 06:12:10;;;;;;;22.55;13.73;;;;;;;11.24;81.79;97592.97;4925653;28;20031;-74
2021/09/08 06:14:36;;;;;;;19.90;12.88;;;;;;;11.34;81.81;97584.94;4928667;28;20031;-74
2021/09/08 06:17:01;;;;;;;19.65;13.27;;;;;;;11.49;81.72;97580.78;4948401;28;20030;-74
2021/09/08 06:19:26;;;;;;;18.73;12.65;;;;;;;11.56;81.60;97590.38;4940713;28;20032;-74
2021/09/08 06:21:52;;;;;;;19.65;12.70;;;;;;;11.64;81.72;97591.03;4948951;28;20125;-74
2021/09/08 06:24:18;;;;;;;19.52;12.82;;;;;;;11.73;81.67;97583.22;4940437;28;20038;-74
2021/09/08 06:26:43;;;;;;;18.63;13.45;;;;;;;11.88;81.38;97574.44;4936978;28;20087;-74
2021/09/08 06:29:08;;;;;;;21.58;13.07;;;;;;;11.92;81.71;97581.81;4941218;28;20026;-74
2021/09/08 06:31:34;;;;;;;18.98;13.13;;;;;;;12.06;81.44;97574.09;4940117;28;20032;-74
2021/09/08 06:33:59;;;;;;;17.42;12.73;;;;;;;12.15;81.35;97574.47;4929852;28;20039;-74
2021/09/08 06:36:25;;;;;;;18.45;12.15;;;;;;;12.25;81.08;97576.47;4935363;28;20070;-74
2021/09/08 06:38:50;;;;;;;15.80;11.20;;;;;;;12.35;80.95;97575.75;4928817;28;20467;-74
2021/09/08 06:41:16;;;;;;;16.75;11.95;;;;;;;12.51;80.21;97579.38;4949671;28;20459;-74
2021/09/08 06:43:41;;;;;;;17.30;12.82;;;;;;;12.68;80.49;97571.09;4931934;28;20081;-74
2021/09/08 06:46:06;;;;;;;15.18;11.65;;;;;;;12.81;79.74;97572.53;4929393;28;20038;-74
2021/09/08 06:48:32;;;;;;;16.15;11.52;;;;;;;12.96;78.90;97568.28;4944153;28;20074;-74
2021/09/08 06:50:57;;;;;;;16.60;11.63;;;;;;;13.08;78.47;97568.09;4954404;28;20777;-74
2021/09/08 06:53:23;;;;;;;17.35;12.23;;;;;;;13.20;78.95;97565.94;4946124;28;20038;-74
2021/09/08 06:55:48;;;;;;;17.83;11.77;;;;;;;13.33;79.07;97561.13;4940130;28;20118;-74
2021/09/08 06:58:13;;;;;;;19.27;11.52;;;;;;;13.44;79.05;97564.69;4940727;28;20077;-74
2021/09/08 07:00:39;;;;;;;18.95;11.48;;;;;;;13.59;79.99;97562.06;4935503;28;20032;-74
2021/09/08 07:03:04;;;;;;;20.00;12.73;;;;;;;13.71;78.93;97559.13;4927962;28;20040;-74
2021/09/08 07:05:30;;;;;;;15.98;11.65;;;;;;;13.89;79.08;97563.25;4938666;28;20062;-74
2021/09/08 07:07:55;;;;;;;14.25;10.57;;;;;;;14.10;79.17;97555.13;4934741;28;20055;-74
2021/09/08 07:10:20;;;;;;;14.93;10.85;;;;;;;14.40;77.30;97555.41;4945444;28;20030;-74
2021/09/08 07:12:46;;;;;;;14.45;10.85;;;;;;;14.69;75.78;97550.22;4939533;28;20113;-74
2021/09/08 07:15:12;;;;;;;13.90;10.20;;;;;;;14.92;73.72;97553.47;4943611;28;20062;-74
2021/09/08 07:17:37;;;;;;;16.77;10.20;;;;;;;15.13;72.66;97544.41;4945380;28;20051;-74
2021/09/08 07:20:03;;;;;;;16.88;9.93;;;;;;;15.40;71.38;97545.97;4941323;28;20766;-74
2021/09/08 07:22:29;;;;;;;17.60;9.70;;;;;;;15.58;71.56;97552.69;4948542;28;20031;-74
2021/09/08 07:24:54;;;;;;;17.40;9.20;;;;;;;15.92;69.33;97549.22;4944511;28;20058;-74
2021/09/08 07:27:19;;;;;;;15.82;9.07;;;;;;;16.16;67.40;97539.53;4933725;28;20031;-74
2021/09/08 07:29:45;;;;;;;14.38;9.35;;;;;;;16.12;67.32;97542.88;4933123;28;20111;-74
2021/09/08 07:32:10;;;;;;;16.08;9.35;;;;;;;16.33;68.00;97548.16;4929441;28;20122;-74
2021/09/08 07:34:35;;;;;;;17.35;8.98;;;;;;;16.61;66.36;97547.66;4950927;28;20049;-74
2021/09/08 07:37:01;;;;;;;24.33;9.80;;;;;;;16.77;65.62;97546.41;4951934;28;20527;-74
2021/09/08 07:39:26;;;;;;;16.27;9.00;;;;;;;16.84;64.63;97548.00;4947594;28;20028;-74
2021/09/08 07:41:52;;;;;;;16.42;9.30;;;;;;;17.00;65.10;97543.19;4943311;28;20055;-75
2021/09/08 07:44:17;;;;;;;16.30;8.38;;;;;;;17.18;63.87;97543.56;4938782;28;20042;-74
2021/09/08 07:46:43;;;;;;;19.58;8.35;;;;;;;17.19;62.89;97545.19;4946643;28;20028;-74
2021/09/08 07:49:08;;;;;;;22.00;9.75;;;;;;;17.25;63.20;97544.03;4928581;28;20049;-75
2021/09/08 07:51:34;;;;;;;12.98;8.45;;;;;;;17.46;61.10;97541.06;4942812;28;20027;-74
2021/09/08 07:53:59;;;;;;;16.30;7.68;;;;;;;17.58;62.45;97537.88;4930078;28;20509;-74
2021/09/08 07:56:25;;;;;;;12.27;7.68;;;;;;;17.75;60.71;97534.63;4927205;28;20035;-74
2021/09/08 07:58:50;;;;;;;16.10;8.00;;;;;;;17.81;60.73;97534.25;4924816;28;20107;-75
2021/09/08 08:01:16;;;;;;;13.95;7.78;;;;;;;18.06;60.54;97540.47;4926318;28;20035;-74
2021/09/08 08:03:41;;;;;;;10.80;6.80;;;;;;;18.22;58.93;97540.28;4942451;28;20058;-74
2021/09/08 08:06:07;;;;;;;9.50;7.15;;;;;;;18.25;59.40;97536.13;4944052;28;20059;-74
2021/09/08 08:08:32;;;;;;;11.52;7.97;;;;;;;18.42;58.11;97539.13;4939108;28;20038;-74
2021/09/08 08:10:57;;;;;;;14.93;7.82;;;;;;;18.54;57.49;97526.91;4944203;28;20656;-74
2021/09/08 08:13:23;;;;;;;13.68;7.68;;;;;;;18.66;57.23;97529.16;4931232;28;20051;-74
2021/09/08 08:15:48;;;;;;;13.73;7.65;;;;;;;18.74;57.02;97527.63;4936979;28;20027;-74
2021/09/08 08:18:14;;;;;;;11.18;7.38;;;;;;;18.92;57.52;97525.94;4944275;29;20376;-74
2021/09/08 08:20:39;;;;;;;10.70;7.15;;;;;;;19.13;55.83;97523.66;4922859;28;20023;-75
2021/09/08 08:23:05;;;;;;;15.90;7.18;;;;;;;19.30;56.85;97525.78;4929926;28;20090;-74
2021/09/08 08:25:31;;;;;;;13.48;8.00;;;;;;;19.45;57.52;97523.81;4931448;28;20076;-74
2021/09/08 08:27:58;;;;;;;10.52;7.00;;;;;;;19.54;53.80;97526.69;4936382;28;20086;-74
2021/09/08 08:30:24;;;;;;;11.95;7.88;;;;;;;19.56;53.43;97518.94;4939047;28;20032;-74
2021/09/08 08:32:50;;;;;;;17.38;7.53;;;;;;;19.72;55.03;97525.72;4929324;28;20024;-74
2021/09/08 08:35:16;;;;;;;10.45;7.05;;;;;;;19.87;52.37;97523.75;4938124;28;20423;-75
2021/09/08 08:37:42;;;;;;;10.57;6.70;;;;;;;19.98;52.06;97516.91;4936669;28;20023;-75
2021/09/08 08:40:09;;;;;;;11.07;6.70;;;;;;;20.08;50.64;97523.31;4932823;28;20027;-74
2021/09/08 08:42:35;;;;;;;11.82;6.68;;;;;;;20.09;51.27;97523.00;4931436;28;20082;-75
2021/09/08 08:45:00;;;;;;;14.93;7.05;;;;;;;20.26;50.53;97510.50;4930588;28;20035;-75
2021/09/08 08:47:26;;;;;;;11.23;6.53;;;;;;;20.26;48.71;97524.25;4924561;28;20439;-74
2021/09/08 08:49:55;;;;;;;10.38;6.70;;;;;;;20.48;49.65;97514.38;4930636;28;20031;-75
2021/09/08 08:52:21;;;;;;;11.02;6.45;;;;;;;20.56;48.19;97508.09;4932316;28;20082;-74
2021/09/08 08:54:46;;;;;;;10.18;6.28;;;;;;;20.74;48.05;97503.53;4940622;28;20098;-75
2021/09/08 08:57:13;;;;;;;12.10;6.68;;;;;;;20.75;46.26;97507.88;4943530;28;20050;-75
2021/09/08 08:59:41;;;;;;;14.18;6.38;;;;;;;20.80;47.79;97512.44;4933245;28;20119;-74
2021/09/08 09:02:17;;;;;;;10.13;6.05;;;;;;;20.90;48.71;97509.44;4938458;28;20050;-75
2021/09/08 09:04:42;;;;;;;11.52;6.35;;;;;;;21.18;48.15;97503.72;4925414;28;20031;-75
2021/09/08 09:07:07;;;;;;;10.82;6.53;;;;;;;21.08;46.21;97501.25;4928012;28;20431;-75
2021/09/08 09:09:33;;;;;;;10.18;6.25;;;;;;;21.24;48.03;97500.81;4942380;29;20070;-75
2021/09/08 09:11:59;;;;;;;12.77;6.80;;;;;;;21.61;48.00;97493.13;4939915;28;20420;-74
2021/09/08 09:14:24;;;;;;;11.27;5.95;;;;;;;21.61;45.45;97498.66;4928062;28;20172;-75
2021/09/08 09:16:49;;;;;;;13.30;6.07;;;;;;;21.75;47.54;97489.44;4934897;28;20078;-75
2021/09/08 09:19:15;;;;;;;8.68;5.70;;;;;;;21.75;45.92;97492.22;4935406;28;20087;-75
2021/09/08 09:21:40;;;;;;;9.10;5.90;;;;;;;21.70;45.72;97491.19;4944894;28;20027;-75
2021/09/08 09:24:08;;;;;;;8.77;5.90;;;;;;;22.02;45.89;97490.25;4936247;28;20141;-74
2021/09/08 09:26:36;;;;;;;13.73;6.00;;;;;;;22.35;46.09;97487.81;4935567;28;20067;-74
2021/09/08 09:29:20;;;;;;;11.07;6.18;;;;;;;22.33;44.60;97486.50;4931991;28;20712;-74
2021/09/08 09:31:54;;;;;;;8.90;5.68;;;;;;;22.19;45.40;97487.50;4925759;28;20043;-74
2021/09/08 09:34:20;;;;;;;10.65;6.13;;;;;;;22.44;44.60;97475.94;4935066;28;20508;-75
2021/09/08 09:36:45;;;;;;;8.40;5.88;;;;;;;22.76;43.78;97475.69;4934013;28;20562;-74
2021/09/08 09:39:11;;;;;;;9.50;6.20;;;;;;;22.80;44.09;97471.13;4924143;28;20034;-74
2021/09/08 09:41:36;;;;;;;11.45;6.15;;;;;;;22.83;45.00;97474.06;4927187;28;20030;-74
2021/09/08 09:44:10;;;;;;;8.48;6.07;;;;;;;22.82;43.44;97479.91;4926239;28;20039;-74
2021/09/08 09:46:40;;;;;;;9.10;5.72;;;;;;;23.03;42.48;97459.84;4925342;29;20027;-75
2021/09/08 09:49:06;;;;;;;10.82;6.53;;;;;;;23.25;43.36;97467.03;4942567;28;20050;-75
2021/09/08 09:51:31;;;;;;;10.82;5.97;;;;;;;23.36;43.60;97464.72;4925563;29;20118;-75
2021/09/08 09:53:57;;;;;;;12.82;6.85;;;;;;;23.36;41.48;97464.72;4926469;28;20110;-75
2021/09/08 09:56:22;;;;;;;10.20;6.05;;;;;;;23.50;42.73;97465.28;4906684;29;20059;-74
2021/09/08 09:58:48;;;;;;;9.02;5.50;;;;;;;23.32;43.14;97452.69;4940178;28;20059;-74
2021/09/08 10:01:13;;;;;;;10.52;6.28;;;;;;;23.21;43.39;97458.63;4935485;28;20436;-75
2021/09/08 10:03:39;;;;;;;9.63;6.35;;;;;;;23.25;42.02;97454.03;4920531;28;20055;-74
2021/09/08 10:06:05;;;;;;;38.33;7.05;;;;;;;23.72;42.46;97452.28;4919810;29;20031;-74
2021/09/08 10:08:34;;;;;;;9.95;5.38;;;;;;;23.93;40.23;97445.94;4933965;28;20063;-74
2021/09/08 10:11:05;;;;;;;9.15;5.95;;;;;;;23.86;40.40;97448.44;4940854;28;20153;-74
2021/09/08 10:13:56;;;;;;;8.75;5.60;;;;;;;24.11;41.63;97440.28;4928486;28;20062;-74
2021/09/08 10:16:22;;;;;;;13.27;6.22;;;;;;;24.23;39.72;97445.03;4934763;28;20388;-75
2021/09/08 10:18:48;;;;;;;8.20;5.95;;;;;;;24.39;41.11;97431.34;4938611;28;20015;-75
2021/09/08 10:21:19;;;;;;;9.95;5.93;;;;;;;24.59;41.72;97429.69;4935231;28;20045;-76
2021/09/08 10:23:53;;;;;;;8.25;6.05;;;;;;;24.65;40.64;97425.53;4938615;28;20038;-75
2021/09/08 10:26:20;;;;;;;8.70;6.63;;;;;;;24.78;39.39;97420.81;4920530;28;20055;-75
2021/09/08 10:28:46;;;;;;;9.57;6.10;;;;;;;24.46;41.74;97414.22;4945762;28;20834;-75
2021/09/08 10:31:14;;;;;;;8.27;6.07;;;;;;;24.76;39.42;97414.00;4939788;28;20077;-75
2021/09/08 10:33:41;;;;;;;9.90;6.05;;;;;;;24.84;41.87;97406.75;4940532;28;20027;-75
2021/09/08 10:36:10;;;;;;;7.85;5.53;;;;;;;25.14;38.87;97410.09;4949996;28;20533;-76
2021/09/08 10:38:36;;;;;;;9.63;6.40;;;;;;;25.40;38.39;97402.56;4941372;28;20525;-76
2021/09/08 10:41:05;;;;;;;11.13;5.78;;;;;;;25.40;40.66;97402.56;4950278;28;20038;-75
2021/09/08 10:43:34;;;;;;;10.38;6.40;;;;;;;25.26;38.81;97397.38;4932722;28;20039;-76
2021/09/08 10:46:00;;;;;;;8.82;5.70;;;;;;;25.31;39.23;97397.94;4916689;29;20028;-76
2021/09/08 10:48:45;;;;;;;9.95;6.38;;;;;;;25.66;39.92;97398.59;4928524;29;20857;-76
2021/09/08 10:51:17;;;;;;;10.10;5.60;;;;;;;25.90;40.11;97394.91;4941101;28;20074;-76
2021/09/08 10:53:42;;;;;;;14.18;6.20;;;;;;;26.09;39.44;97396.22;4931150;28;20031;-76
2021/09/08 10:56:08;;;;;;;9.05;5.47;;;;;;;26.45;37.95;97396.34;4912753;29;20027;-76
2021/09/08 10:58:55;;;;;;;8.57;4.80;;;;;;;26.48;37.57;97384.53;4953661;28;20632;-74
2021/09/08 11:01:21;;;;;;;8.73;5.47;;;;;;;28.14;35.40;97386.63;4947808;28;20027;-74
2021/09/08 11:03:47;;;;;;;8.07;5.15;;;;;;;28.18;33.42;97384.72;4927667;28;20122;-75
2021/09/08 11:06:13;;;;;;;9.43;5.25;;;;;;;28.63;32.96;97380.72;4941880;28;20023;-74
2021/09/08 11:08:38;;;;;;;8.00;5.40;;;;;;;28.85;31.80;97381.06;4944914;28;20039;-75
2021/09/08 11:11:11;;;;;;;10.18;5.40;;;;;;;28.59;31.94;97382.66;4935586;28;20038;-73
2021/09/08 11:13:38;;;;;;;7.70;5.22;;;;;;;28.36;32.00;97375.91;4932164;28;20023;-73
2021/09/08 11:16:18;;;;;;;7.65;5.63;;;;;;;29.13;31.86;97377.94;4933151;28;20019;-74